Time;durP1;ratioP1;P1;durP2;ratioP2;P2;SDS_P1;SDS_P2;PMS_P1;PMS_P2;Temp;Humidity;BMP_temperature;BMP_pressure;BME280_temperature;BME280_humidity;BME280_pressure;Samples;Min_cycle;Max_cycle;Signal;HPM_P1;HPM_P2
2022/05/31 00:01:27;;;;;;;5.62;2.70;;;;;;;18.62;53.59;97991.56;5414030;26;20138;-78
2022/05/31 00:03:54;;;;;;;6.15;2.80;;;;;;;18.25;54.94;98002.16;5413844;26;20040;-78
2022/05/31 00:06:21;;;;;;;7.43;2.97;;;;;;;17.97;56.30;98006.00;5413585;26;20072;-78
2022/05/31 00:08:48;;;;;;;7.30;3.28;;;;;;;17.60;57.58;98008.62;5413765;26;20112;-78
2022/05/31 00:11:15;;;;;;;7.18;3.35;;;;;;;18.02;56.64;98014.31;5413836;26;20449;-78
2022/05/31 00:13:42;;;;;;;6.62;2.80;;;;;;;17.20;58.36;98007.19;5413519;26;20102;-78
2022/05/31 00:16:10;;;;;;;6.53;3.20;;;;;;;17.73;57.33;98008.59;5413506;26;20137;-78
2022/05/31 00:18:37;;;;;;;10.88;3.20;;;;;;;17.64;57.49;98004.00;5413406;26;20405;-78
2022/05/31 00:21:05;;;;;;;6.22;2.85;;;;;;;18.45;54.49;98011.97;5413805;26;20118;-78
2022/05/31 00:23:32;;;;;;;6.57;2.85;;;;;;;18.60;53.86;98015.19;5393494;26;20053;-78
2022/05/31 00:25:59;;;;;;;8.43;3.10;;;;;;;18.32;54.25;98015.62;5413478;26;20107;-78
2022/05/31 00:28:26;;;;;;;6.65;3.12;;;;;;;17.27;57.33;98014.47;5413695;26;20130;-78
2022/05/31 00:30:53;;;;;;;7.47;3.35;;;;;;;17.60;57.03;98013.84;5413736;26;20106;-78
2022/05/31 00:33:21;;;;;;;8.18;3.55;;;;;;;17.49;57.70;98013.78;5413396;26;20052;-78
2022/05/31 00:35:53;;;;;;;6.75;3.15;;;;;;;16.90;59.46;98010.13;5413746;26;20130;-78
2022/05/31 00:38:21;;;;;;;6.95;3.15;;;;;;;17.28;58.55;98020.53;5413634;26;20450;-78
2022/05/31 00:40:48;;;;;;;6.55;3.03;;;;;;;17.42;58.20;98016.94;5392959;26;20118;-78
2022/05/31 00:43:22;;;;;;;7.20;3.03;;;;;;;17.34;58.25;98025.31;5413562;26;20126;-78
2022/05/31 00:45:55;;;;;;;9.73;3.28;;;;;;;17.39;58.29;98019.75;5413899;26;20130;-78
2022/05/31 00:48:26;;;;;;;7.87;3.47;;;;;;;17.74;57.32;98025.94;5393166;26;20059;-78
2022/05/31 00:51:02;;;;;;;9.07;3.70;;;;;;;17.47;58.13;98022.66;5393252;26;20126;-78
2022/05/31 00:53:37;;;;;;;6.97;3.30;;;;;;;17.41;58.10;98026.53;5413741;26;20126;-78
2022/05/31 00:56:28;;;;;;;7.03;2.97;;;;;;;16.63;60.39;98026.69;5413616;26;20210;-78
2022/05/31 00:59:10;;;;;;;7.53;2.92;;;;;;;17.43;57.66;98037.69;5414531;26;20558;-78
2022/05/31 01:01:41;;;;;;;7.10;3.15;;;;;;;17.20;58.09;98035.84;5393922;26;20110;-78
2022/05/31 01:04:09;;;;;;;7.57;3.35;;;;;;;17.39;57.77;98035.41;5394496;26;20073;-78
2022/05/31 01:06:36;;;;;;;7.82;3.67;;;;;;;16.91;58.71;98027.47;5414735;26;20051;-78
2022/05/31 01:09:04;;;;;;;7.50;3.15;;;;;;;17.31;57.65;98043.75;5414148;26;20055;-78
2022/05/31 01:11:35;;;;;;;8.07;3.58;;;;;;;17.20;57.14;98033.25;5414619;26;20135;-78
2022/05/31 01:14:01;;;;;;;8.23;3.47;;;;;;;15.66;63.47;98028.75;5394406;26;20098;-78
2022/05/31 01:16:28;;;;;;;9.07;3.83;;;;;;;16.12;62.81;98036.19;5413957;26;20089;-78
2022/05/31 01:18:56;;;;;;;7.37;3.50;;;;;;;16.14;62.70;98035.16;5414533;26;20051;-78
2022/05/31 01:21:23;;;;;;;9.80;3.35;;;;;;;16.22;62.18;98032.06;5414383;26;20111;-78
2022/05/31 01:24:09;;;;;;;8.77;3.37;;;;;;;16.14;62.54;98032.56;5413989;26;20043;-78
2022/05/31 01:26:47;;;;;;;7.68;3.35;;;;;;;16.89;60.27;98029.31;5414745;26;20462;-78
2022/05/31 01:29:23;;;;;;;8.48;3.97;;;;;;;17.27;59.24;98030.12;5393914;26;20127;-78
2022/05/31 01:31:57;;;;;;;8.13;3.25;;;;;;;17.12;59.82;98026.00;5394364;26;20106;-78
2022/05/31 01:34:31;;;;;;;9.80;3.72;;;;;;;17.43;58.87;98032.47;5414651;26;20123;-78
2022/05/31 01:36:58;;;;;;;8.73;3.60;;;;;;;17.77;57.83;98024.91;5394070;26;20122;-78
2022/05/31 01:39:50;;;;;;;7.65;3.30;;;;;;;17.59;57.98;98032.22;5414293;26;20542;-78
2022/05/31 01:42:30;;;;;;;8.10;3.67;;;;;;;18.10;56.50;98030.25;5394334;26;20123;-78
2022/05/31 01:45:11;;;;;;;7.28;3.30;;;;;;;18.16;55.81;98034.19;5394042;26;20541;-78
2022/05/31 01:47:38;;;;;;;8.48;3.50;;;;;;;17.85;56.91;98033.81;5414402;26;20103;-78
2022/05/31 01:50:10;;;;;;;8.68;3.50;;;;;;;17.72;57.57;98042.66;5414097;26;20111;-78
2022/05/31 01:52:37;;;;;;;9.00;3.20;;;;;;;17.83;57.32;98047.91;5414720;26;20083;-78
2022/05/31 01:55:06;;;;;;;9.00;3.42;;;;;;;17.94;56.89;98047.97;5414455;26;20104;-78
2022/05/31 01:57:34;;;;;;;7.03;3.15;;;;;;;17.86;56.96;98047.69;5413888;26;20063;-78
2022/05/31 02:00:06;;;;;;;7.18;3.25;;;;;;;18.20;55.45;98048.69;5394082;26;20071;-78
2022/05/31 02:02:33;;;;;;;6.53;2.92;;;;;;;18.79;52.54;98046.03;5414329;26;20127;-78
2022/05/31 02:05:00;;;;;;;9.35;3.40;;;;;;;18.43;53.41;98053.06;5393725;26;20104;-78
2022/05/31 02:07:27;;;;;;;6.47;3.10;;;;;;;18.01;55.11;98054.44;5413882;26;20055;-78
2022/05/31 02:09:55;;;;;;;8.00;3.58;;;;;;;18.01;55.23;98058.81;5414343;26;20356;-78
2022/05/31 02:12:26;;;;;;;8.45;3.30;;;;;;;18.16;54.47;98057.69;5393620;26;20375;-78
2022/05/31 02:14:53;;;;;;;9.35;3.55;;;;;;;18.20;53.97;98057.37;5414225;26;20059;-78
2022/05/31 02:17:21;;;;;;;8.55;3.08;;;;;;;18.74;51.85;98053.41;5414257;26;20118;-78
2022/05/31 02:19:48;;;;;;;7.90;3.42;;;;;;;17.95;54.25;98054.84;5414039;26;20178;-78
2022/05/31 02:22:17;;;;;;;8.32;3.28;;;;;;;17.89;54.23;98053.53;5414274;26;20130;-78
2022/05/31 02:24:44;;;;;;;7.60;3.25;;;;;;;17.86;54.73;98047.69;5414180;26;20087;-78
2022/05/31 02:27:12;;;;;;;9.25;3.33;;;;;;;18.00;54.48;98058.00;5414006;26;20090;-78
2022/05/31 02:29:39;;;;;;;6.05;2.75;;;;;;;18.36;53.94;98053.59;5414113;26;20106;-78
2022/05/31 02:32:08;;;;;;;7.45;2.90;;;;;;;18.92;51.73;98049.34;5413877;26;20094;-78
2022/05/31 02:34:44;;;;;;;6.18;3.00;;;;;;;18.88;51.45;98054.94;5394137;26;20054;-78
2022/05/31 02:37:11;;;;;;;6.82;2.90;;;;;;;18.45;52.85;98055.53;5414371;26;20075;-78
2022/05/31 02:39:39;;;;;;;7.30;3.00;;;;;;;18.24;53.77;98050.13;5413931;26;20107;-78
2022/05/31 02:42:07;;;;;;;7.28;3.03;;;;;;;18.01;54.73;98051.81;5394061;26;20078;-78
2022/05/31 02:44:35;;;;;;;7.05;3.20;;;;;;;17.98;54.79;98048.59;5414175;26;20044;-78
2022/05/31 02:47:02;;;;;;;7.37;2.85;;;;;;;17.51;56.36;98055.41;5413818;26;20060;-78
2022/05/31 02:49:29;;;;;;;6.78;2.90;;;;;;;17.70;55.80;98053.19;5393799;26;20119;-78
2022/05/31 02:51:58;;;;;;;6.25;2.70;;;;;;;17.85;55.64;98049.47;5414249;26;20114;-78
2022/05/31 02:54:26;;;;;;;5.70;2.83;;;;;;;17.91;55.47;98053.44;5413879;26;20397;-78
2022/05/31 02:56:53;;;;;;;8.23;3.00;;;;;;;17.81;55.50;98060.25;5414252;26;20068;-78
2022/05/31 02:59:21;;;;;;;10.10;2.90;;;;;;;18.09;53.93;98054.72;5413970;26;20110;-78
2022/05/31 03:01:49;;;;;;;8.45;2.80;;;;;;;17.87;55.06;98068.50;5413812;26;20133;-78
2022/05/31 03:04:16;;;;;;;6.30;2.53;;;;;;;17.59;55.30;98066.97;5414132;26;20355;-78
2022/05/31 03:06:44;;;;;;;7.22;2.97;;;;;;;17.63;54.83;98071.03;5414234;26;20075;-78
2022/05/31 03:09:10;;;;;;;6.72;2.60;;;;;;;17.65;54.03;98065.69;5413810;26;20414;-78
2022/05/31 03:11:57;;;;;;;5.75;2.83;;;;;;;17.63;53.30;98075.41;5414145;26;20071;-78
2022/05/31 03:14:49;;;;;;;5.55;2.47;;;;;;;17.53;52.97;98077.81;5378294;26;410408;-78
2022/05/31 03:17:19;;;;;;;6.05;3.15;;;;;;;17.34;52.87;98086.13;5383525;26;20067;-78
2022/05/31 03:19:50;;;;;;;7.05;2.60;;;;;;;17.62;51.85;98079.78;5414087;26;20130;-78
2022/05/31 03:22:22;;;;;;;7.75;2.50;;;;;;;16.85;54.82;98080.81;5413827;26;20136;-78
2022/05/31 03:24:53;;;;;;;4.57;2.30;;;;;;;16.32;56.77;98076.56;5414104;26;20049;-78
2022/05/31 03:27:20;;;;;;;5.55;2.70;;;;;;;16.64;56.12;98079.63;5394055;26;20119;-78
2022/05/31 03:29:48;;;;;;;5.28;2.25;;;;;;;16.41;57.11;98071.56;5413659;26;20111;-78
2022/05/31 03:32:16;;;;;;;5.95;2.92;;;;;;;16.85;56.09;98072.19;5414046;26;20696;-78
2022/05/31 03:34:43;;;;;;;7.35;2.50;;;;;;;17.00;55.70;98071.13;5414124;26;20562;-78
2022/05/31 03:37:10;;;;;;;6.62;2.53;;;;;;;17.29;55.18;98075.16;5413691;26;20111;-78
2022/05/31 03:39:37;;;;;;;6.00;2.42;;;;;;;17.37;55.31;98073.81;5414057;26;20079;-78
2022/05/31 03:42:06;;;;;;;6.55;2.30;;;;;;;17.55;54.80;98069.91;5413903;26;20110;-78
2022/05/31 03:44:33;;;;;;;5.22;2.40;;;;;;;17.87;53.18;98076.31;5393585;26;20107;-78
2022/05/31 03:47:04;;;;;;;5.90;2.50;;;;;;;18.08;52.83;98078.31;5414044;26;20060;-78
2022/05/31 03:49:32;;;;;;;6.40;2.62;;;;;;;18.11;53.02;98083.31;5413494;26;20075;-78
2022/05/31 03:51:59;;;;;;;7.37;2.60;;;;;;;17.53;54.53;98080.44;5414138;26;20586;-78
2022/05/31 03:54:27;;;;;;;6.43;2.60;;;;;;;17.52;56.04;98076.16;5414064;26;20102;-78
2022/05/31 03:56:54;;;;;;;6.35;2.70;;;;;;;18.14;54.27;98075.25;5393455;26;20098;-78
2022/05/31 03:59:21;;;;;;;5.93;2.80;;;;;;;17.86;55.46;98076.41;5413814;26;20074;-78
2022/05/31 04:01:48;;;;;;;5.90;2.60;;;;;;;17.76;55.80;98080.66;5413850;26;20114;-78
2022/05/31 04:04:15;;;;;;;4.87;2.30;;;;;;;17.43;56.59;98076.81;5413549;26;20059;-78
2022/05/31 04:06:42;;;;;;;8.88;2.62;;;;;;;17.50;57.27;98077.22;5413962;26;20380;-78
2022/05/31 04:09:09;;;;;;;7.12;2.47;;;;;;;16.85;60.02;98072.19;5413683;26;20083;-78
2022/05/31 04:11:35;;;;;;;6.62;2.60;;;;;;;17.41;59.14;98077.84;5413551;26;20051;-78
2022/05/31 04:14:02;;;;;;;6.05;2.50;;;;;;;17.53;59.52;98080.44;5413877;26;20054;-78
2022/05/31 04:16:29;;;;;;;6.85;2.47;;;;;;;17.78;59.72;98081.34;5413576;26;20063;-78
2022/05/31 04:18:57;;;;;;;7.32;2.28;;;;;;;17.57;60.69;98087.13;5413342;26;20378;-78
2022/05/31 04:21:24;;;;;;;5.50;2.20;;;;;;;18.37;58.43;98078.78;5412359;26;20107;-78
2022/05/31 04:24:08;;;;;;;7.70;2.53;;;;;;;18.58;58.32;98087.63;5413769;26;20043;-78
2022/05/31 04:26:43;;;;;;;6.25;2.50;;;;;;;17.84;61.13;98079.13;5414030;26;20070;-78
2022/05/31 04:29:10;;;;;;;5.12;2.53;;;;;;;18.42;60.34;98087.97;5413878;26;20118;-78
2022/05/31 04:31:37;;;;;;;6.65;2.70;;;;;;;18.07;62.22;98079.25;5414736;26;20380;-78
2022/05/31 04:34:04;;;;;;;5.65;2.47;;;;;;;18.41;61.37;98085.47;5416375;26;20063;-78
2022/05/31 04:36:31;;;;;;;7.28;2.70;;;;;;;19.80;56.93;98083.50;5416335;26;20052;-78
2022/05/31 04:38:59;;;;;;;7.62;2.90;;;;;;;19.50;57.69;98083.25;5415814;26;20069;-78
2022/05/31 04:41:28;;;;;;;5.65;2.83;;;;;;;19.38;58.53;98082.44;5416284;26;20107;-78
2022/05/31 04:43:58;;;;;;;7.18;2.80;;;;;;;19.60;58.27;98089.47;5395968;26;20545;-78
2022/05/31 04:46:28;;;;;;;6.00;2.70;;;;;;;19.35;59.10;98096.59;5415875;26;20070;-78
2022/05/31 04:48:57;;;;;;;6.45;2.70;;;;;;;19.47;58.35;98099.22;5416207;26;20096;-78
2022/05/31 04:51:24;;;;;;;6.50;2.95;;;;;;;18.47;62.08;98108.50;5416173;26;20059;-78
2022/05/31 04:53:51;;;;;;;7.18;3.03;;;;;;;18.20;63.19;98101.75;5415815;26;20115;-78
2022/05/31 04:56:19;;;;;;;6.40;3.00;;;;;;;18.89;61.00;98098.44;5416154;26;20406;-78
2022/05/31 04:58:49;;;;;;;6.78;2.92;;;;;;;19.44;58.91;98092.41;5416040;26;20071;-78
2022/05/31 05:01:16;;;;;;;14.30;5.87;;;;;;;19.19;60.08;98093.50;5415644;26;20378;-78
2022/05/31 05:03:46;;;;;;;9.07;3.72;;;;;;;18.94;61.98;98097.16;5415929;26;20040;-78
2022/05/31 05:06:15;;;;;;;9.65;4.20;;;;;;;18.52;62.85;98100.34;5416086;26;20079;-78
2022/05/31 05:08:42;;;;;;;10.07;3.90;;;;;;;19.03;61.24;98096.47;5415711;26;20115;-78
2022/05/31 05:11:11;;;;;;;10.32;3.92;;;;;;;19.43;59.87;98092.53;5415954;26;20398;-78
2022/05/31 05:13:39;;;;;;;8.27;3.50;;;;;;;18.75;63.00;98087.25;5415733;26;20056;-78
2022/05/31 05:16:08;;;;;;;9.15;3.22;;;;;;;18.86;62.93;98086.44;5415741;26;20063;-78
2022/05/31 05:18:35;;;;;;;16.55;8.02;;;;;;;19.04;61.96;98089.44;5415886;26;20063;-78
2022/05/31 05:21:05;;;;;;;12.50;5.53;;;;;;;18.75;63.14;98092.47;5415570;26;20135;-78
2022/05/31 05:23:32;;;;;;;11.18;5.35;;;;;;;19.32;60.97;98095.97;5415883;26;20361;-78
2022/05/31 05:26:00;;;;;;;11.43;4.70;;;;;;;19.01;62.19;98092.28;5416001;26;20090;-78
2022/05/31 05:31:27;;;;;;;8.25;3.70;;;;;;;20.40;58.70;98108.28;5416007;26;20746;-78
2022/05/31 05:33:55;;;;;;;5.68;2.35;;;;;;;21.41;53.81;98107.75;5415892;26;20058;-78
2022/05/31 05:36:23;;;;;;;5.80;3.00;;;;;;;20.64;56.31;98110.75;5415430;26;20119;-78
2022/05/31 05:38:50;;;;;;;5.82;2.70;;;;;;;20.74;56.23;98110.81;5415818;26;20074;-78
2022/05/31 05:41:20;;;;;;;6.87;2.83;;;;;;;21.26;55.09;98111.66;5415776;26;20099;-78
2022/05/31 05:43:47;;;;;;;8.13;3.65;;;;;;;22.17;52.47;98118.63;5414556;26;20126;-78
2022/05/31 05:46:17;;;;;;;8.85;4.35;;;;;;;22.26;52.66;98127.50;5414445;26;20067;-78
2022/05/31 05:48:45;;;;;;;8.00;3.37;;;;;;;21.21;56.12;98121.72;5413897;26;20063;-78
2022/05/31 05:51:14;;;;;;;6.87;3.40;;;;;;;22.17;53.49;98116.00;5414392;26;20065;-78
2022/05/31 05:53:41;;;;;;;6.87;3.05;;;;;;;23.15;50.62;98125.50;5414268;26;20095;-78
2022/05/31 05:56:09;;;;;;;7.00;3.03;;;;;;;22.92;50.09;98127.66;5413929;26;20111;-78
2022/05/31 05:58:36;;;;;;;7.75;3.33;;;;;;;22.11;52.83;98125.25;5414095;26;20118;-78
2022/05/31 06:01:05;;;;;;;8.77;3.37;;;;;;;22.06;52.73;98121.34;5414475;26;20175;-78
2022/05/31 06:03:51;;;;;;;7.50;3.30;;;;;;;21.95;52.99;98112.63;5413800;26;20107;-79
2022/05/31 06:06:18;;;;;;;6.90;2.80;;;;;;;21.33;55.83;98118.91;5414390;26;20112;-79
2022/05/31 06:09:07;;;;;;;6.93;2.17;;;;;;;22.36;49.51;98116.03;5414108;26;20055;-80
2022/05/31 06:11:46;;;;;;;5.32;2.12;;;;;;;21.89;51.14;98113.13;5414536;26;20115;-81
2022/05/31 06:14:25;;;;;;;4.10;1.83;;;;;;;21.87;51.59;98122.12;5414365;26;20063;-79
2022/05/31 06:16:57;;;;;;;4.27;2.00;;;;;;;21.37;53.00;98122.94;5413291;26;20114;-79
2022/05/31 06:19:28;;;;;;;6.97;2.50;;;;;;;21.57;51.75;98128.25;5413914;26;20112;-79
2022/05/31 06:21:55;;;;;;;4.43;2.12;;;;;;;21.96;51.92;98131.84;5393802;26;20050;-81
2022/05/31 06:24:23;;;;;;;5.50;2.20;;;;;;;21.32;53.61;98135.59;5414139;26;20426;-81
2022/05/31 06:26:50;;;;;;;6.43;2.53;;;;;;;20.50;57.01;98132.00;5413260;26;20119;-81
2022/05/31 06:29:17;;;;;;;5.90;2.05;;;;;;;21.14;54.63;98138.91;5415499;26;20115;-80
2022/05/31 06:31:44;;;;;;;5.35;2.05;;;;;;;20.61;56.11;98139.81;5393805;26;20114;-80
2022/05/31 06:34:12;;;;;;;7.35;2.60;;;;;;;20.91;55.41;98141.69;5393946;26;20124;-79
2022/05/31 06:36:41;;;;;;;3.80;2.03;;;;;;;20.46;56.30;98135.84;5414239;26;20433;-79
2022/05/31 06:39:09;;;;;;;6.62;2.33;;;;;;;21.62;53.16;98134.78;5393283;26;20700;-79
2022/05/31 06:41:36;;;;;;;5.25;2.00;;;;;;;20.06;60.42;98140.78;5393551;26;20130;-79
2022/05/31 06:44:04;;;;;;;4.93;2.25;;;;;;;20.88;55.13;98149.00;5414094;26;20048;-80
2022/05/31 06:46:31;;;;;;;5.60;1.98;;;;;;;21.40;54.41;98155.13;5413786;26;20406;-80
2022/05/31 06:48:59;;;;;;;6.15;2.20;;;;;;;21.66;53.06;98151.91;5394275;26;20078;-79
2022/05/31 06:57:00;;;;;;;6.00;2.30;;;;;;;21.29;54.05;98161.28;5414386;26;20060;-79
2022/05/31 06:59:27;;;;;;;6.05;2.30;;;;;;;20.48;55.93;98158.31;5413807;26;20130;-79
2022/05/31 07:02:03;;;;;;;5.78;2.40;;;;;;;21.05;55.52;98167.62;5414059;26;20106;-79
2022/05/31 07:04:31;;;;;;;5.82;2.22;;;;;;;20.41;56.91;98170.22;5413242;26;20098;-79
2022/05/31 07:06:58;;;;;;;6.40;2.62;;;;;;;20.33;58.01;98170.03;5393701;26;20126;-79
2022/05/31 07:09:25;;;;;;;4.30;2.20;;;;;;;21.46;54.17;98171.16;5413237;26;20069;-79
2022/05/31 07:11:56;;;;;;;6.12;2.40;;;;;;;21.55;54.18;98175.62;5414426;26;20047;-79
2022/05/31 07:14:24;;;;;;;8.50;2.40;;;;;;;21.54;53.80;98173.16;5393811;26;20051;-78
2022/05/31 07:16:51;;;;;;;4.47;2.10;;;;;;;21.25;55.27;98179.03;5413918;26;20467;-79
2022/05/31 07:19:18;;;;;;;7.45;2.28;;;;;;;21.65;54.17;98167.81;5413897;26;20048;-79
2022/05/31 07:21:45;;;;;;;7.15;2.47;;;;;;;20.97;55.09;98174.44;5413848;26;20107;-79
2022/05/31 07:24:12;;;;;;;4.00;2.28;;;;;;;22.05;51.99;98159.94;5413998;26;20103;-79
2022/05/31 07:26:48;;;;;;;4.78;2.03;;;;;;;21.29;54.16;98167.38;5413916;26;20069;-79
2022/05/31 07:29:15;;;;;;;5.97;2.58;;;;;;;21.71;53.02;98163.84;5413975;26;20063;-79
2022/05/31 07:31:44;;;;;;;6.65;2.55;;;;;;;20.14;58.85;98156.75;5414355;26;20442;-79
2022/05/31 07:34:31;;;;;;;4.47;2.17;;;;;;;20.40;58.41;98165.09;5413615;26;20138;-79
2022/05/31 07:36:58;;;;;;;7.53;3.20;;;;;;;20.69;57.03;98163.59;5413910;26;20075;-76
2022/05/31 07:39:25;;;;;;;9.88;3.60;;;;;;;20.64;56.45;98170.19;5393681;26;20111;-77
2022/05/31 07:41:56;;;;;;;5.18;2.67;;;;;;;21.40;53.25;98174.34;5413921;26;20400;-78
2022/05/31 07:44:25;;;;;;;5.65;2.28;;;;;;;21.90;51.20;98171.75;5414201;26;20405;-78
2022/05/31 07:46:54;;;;;;;6.32;2.45;;;;;;;21.25;54.47;98172.97;5414560;26;20055;-78
2022/05/31 07:49:22;;;;;;;11.00;3.25;;;;;;;20.50;55.23;98173.94;5413453;26;20119;-79
2022/05/31 07:51:49;;;;;;;6.45;2.72;;;;;;;21.16;55.44;98179.84;5414317;26;20098;-79
2022/05/31 07:54:16;;;;;;;6.57;3.03;;;;;;;21.03;53.85;98182.62;5414115;26;20063;-80
2022/05/31 07:56:43;;;;;;;4.75;2.30;;;;;;;20.90;55.94;98187.22;5393509;26;20140;-79
2022/05/31 07:59:10;;;;;;;5.45;2.47;;;;;;;20.88;55.56;98183.91;5413874;26;20052;-79
2022/05/31 08:01:40;;;;;;;4.97;2.40;;;;;;;20.73;55.76;98188.59;5413959;26;20047;-79
2022/05/31 08:04:07;;;;;;;5.65;2.58;;;;;;;21.50;53.55;98193.59;5414074;26;20054;-80
2022/05/31 08:06:35;;;;;;;6.37;2.53;;;;;;;20.58;56.34;98186.41;5413457;26;20103;-79
2022/05/31 08:09:04;;;;;;;8.00;2.95;;;;;;;20.56;57.42;98194.41;5413263;26;20677;-79
2022/05/31 08:11:32;;;;;;;5.97;2.97;;;;;;;20.59;58.80;98188.91;5414117;26;20051;-79
2022/05/31 08:14:01;;;;;;;6.12;2.80;;;;;;;21.31;56.47;98193.47;5394002;26;20043;-79
2022/05/31 08:16:29;;;;;;;6.15;2.55;;;;;;;20.55;57.73;98187.50;5413415;26;20123;-79
2022/05/31 08:18:57;;;;;;;6.22;2.47;;;;;;;21.92;52.84;98191.69;5413736;26;20097;-80
2022/05/31 08:21:30;;;;;;;6.43;2.60;;;;;;;21.83;53.28;98191.66;5414002;26;20048;-80
2022/05/31 08:24:00;;;;;;;6.78;2.72;;;;;;;22.10;52.24;98194.53;5413946;26;20043;-78
2022/05/31 08:26:46;;;;;;;4.68;2.28;;;;;;;21.14;55.29;98192.22;5413911;26;20321;-78
2022/05/31 08:29:13;;;;;;;7.15;2.85;;;;;;;21.15;56.56;98186.00;5413630;26;20071;-78
2022/05/31 08:31:41;;;;;;;6.37;2.53;;;;;;;22.32;52.98;98190.00;5413841;26;20098;-79
2022/05/31 08:34:08;;;;;;;5.03;2.40;;;;;;;22.13;52.35;98178.53;5414545;26;20099;-79
2022/05/31 08:36:35;;;;;;;5.53;2.50;;;;;;;21.15;57.49;98190.44;5413981;26;20059;-79
2022/05/31 08:39:02;;;;;;;5.60;2.50;;;;;;;21.11;57.20;98182.00;5413063;26;20139;-78
2022/05/31 08:41:32;;;;;;;5.10;2.30;;;;;;;21.55;54.43;98173.00;5413849;26;20783;-79
2022/05/31 08:44:06;;;;;;;6.97;2.60;;;;;;;20.69;57.33;98181.13;5413465;26;20099;-79
2022/05/31 08:47:00;;;;;;;6.47;2.65;;;;;;;21.41;55.66;98176.00;5413753;26;20051;-79
2022/05/31 08:52:47;;;;;;;5.22;2.30;;;;;;;21.94;53.30;98181.06;5414173;26;20058;-79
2022/05/31 08:58:12;;;;;;;3.92;1.83;;;;;;;21.58;55.05;98174.53;5396312;26;20123;-79
2022/05/31 09:00:41;;;;;;;6.50;2.30;;;;;;;21.43;53.25;98181.09;5412297;26;20073;-79
2022/05/31 09:03:29;;;;;;;4.65;2.10;;;;;;;21.87;50.94;98175.50;5393472;26;20133;-79
2022/05/31 09:06:07;;;;;;;5.28;1.98;;;;;;;22.14;49.56;98171.47;5413321;26;20101;-79
2022/05/31 09:08:39;;;;;;;6.55;2.08;;;;;;;22.98;48.96;98177.91;5393377;26;20114;-79
2022/05/31 09:11:17;;;;;;;4.47;1.87;;;;;;;22.71;49.03;98173.31;5413709;26;20096;-79
2022/05/31 09:14:11;;;;;;;4.45;1.80;;;;;;;23.39;45.67;98162.69;5393565;26;20051;-79
2022/05/31 09:16:45;;;;;;;3.78;1.70;;;;;;;23.71;45.03;98162.34;5393833;26;20054;-79
2022/05/31 09:19:21;;;;;;;5.18;1.67;;;;;;;23.64;44.28;98164.75;5394058;26;20141;-79
2022/05/31 09:21:49;;;;;;;7.68;1.80;;;;;;;24.12;44.15;98158.38;5394357;26;20073;-79
2022/05/31 09:24:18;;;;;;;2.65;1.70;;;;;;;24.32;42.28;98158.31;5414695;26;20051;-79
2022/05/31 09:27:06;;;;;;;4.07;1.85;;;;;;;24.11;42.91;98154.09;5393913;26;20074;-79
2022/05/31 09:29:56;;;;;;;3.87;1.83;;;;;;;23.93;42.52;98162.00;5393886;26;20079;-79
2022/05/31 09:32:48;;;;;;;5.35;1.70;;;;;;;23.57;44.78;98155.72;5414195;26;20055;-79
2022/05/31 09:35:23;;;;;;;4.43;1.67;;;;;;;24.04;45.32;98155.69;5414252;26;20162;-79
2022/05/31 09:38:16;;;;;;;4.60;1.90;;;;;;;23.36;44.81;98158.56;5393989;26;20039;-79
2022/05/31 09:40:45;;;;;;;12.48;2.28;;;;;;;23.75;45.23;98152.38;5413851;26;20075;-79
2022/05/31 09:43:30;;;;;;;5.95;1.80;;;;;;;24.75;43.15;98152.28;5394297;26;20383;-79
2022/05/31 09:45:59;;;;;;;2.60;1.50;;;;;;;23.72;45.97;98153.50;5414391;26;20671;-79
2022/05/31 09:48:27;;;;;;;3.75;1.52;;;;;;;24.08;43.61;98154.41;5393755;26;20078;-79
2022/05/31 09:50:58;;;;;;;2.80;1.60;;;;;;;22.97;47.11;98162.28;5414412;26;20066;-79
2022/05/31 09:59:22;;;;;;;5.40;1.80;;;;;;;24.10;44.88;98162.16;5396999;26;20047;-79
2022/05/31 10:01:49;;;;;;;6.22;1.70;;;;;;;24.10;43.10;98162.97;5414113;26;20111;-79
2022/05/31 10:04:29;;;;;;;5.70;1.87;;;;;;;24.98;41.95;98164.00;5414562;26;20477;-79
2022/05/31 10:07:01;;;;;;;3.58;1.60;;;;;;;24.62;44.80;98167.66;5394403;26;20423;-79
2022/05/31 10:09:43;;;;;;;3.85;1.75;;;;;;;24.12;43.91;98158.38;5413828;26;20397;-79
2022/05/31 10:12:11;;;;;;;3.42;1.62;;;;;;;25.36;41.52;98164.63;5414579;26;20055;-79
2022/05/31 10:14:44;;;;;;;3.35;1.52;;;;;;;24.81;41.70;98164.87;5414484;26;20059;-79
2022/05/31 10:17:26;;;;;;;2.97;1.48;;;;;;;24.34;42.46;98154.53;5413778;26;20058;-79
2022/05/31 10:20:23;;;;;;;3.62;1.45;;;;;;;24.15;42.85;98155.47;5414295;26;20390;-79
2022/05/31 10:23:03;;;;;;;4.30;1.67;;;;;;;24.76;41.73;98148.66;5412689;26;20433;-79
2022/05/31 10:26:06;;;;;;;4.28;1.80;;;;;;;25.92;40.48;98147.44;5394324;26;20063;-79
2022/05/31 10:28:50;;;;;;;2.53;1.37;;;;;;;22.68;45.74;98138.59;5321065;27;20116;-79
2022/05/31 10:31:40;;;;;;;3.67;1.60;;;;;;;24.06;45.64;98147.63;5405733;26;20047;-79
2022/05/31 10:34:36;;;;;;;3.15;1.48;;;;;;;25.03;42.82;98151.22;5414448;26;20056;-79
2022/05/31 10:37:06;;;;;;;3.37;1.52;;;;;;;25.31;42.38;98151.91;5413973;26;20063;-79
2022/05/31 10:39:37;;;;;;;4.40;1.70;;;;;;;25.23;41.08;98143.09;5414190;26;20445;-80
2022/05/31 10:42:12;;;;;;;5.20;1.62;;;;;;;27.04;37.68;98147.00;5414407;26;20091;-80
2022/05/31 10:44:44;;;;;;;2.83;1.25;;;;;;;28.24;35.85;98143.28;5413856;26;20107;-80
2022/05/31 10:47:16;;;;;;;3.62;1.40;;;;;;;26.87;36.59;98145.31;5414357;26;20594;-80
2022/05/31 10:49:45;;;;;;;4.75;1.50;;;;;;;27.34;36.59;98146.28;5414162;26;20137;-80
2022/05/31 10:52:22;;;;;;;4.43;1.60;;;;;;;27.30;37.08;98139.66;5393661;26;20413;-80
2022/05/31 10:54:58;;;;;;;4.85;1.50;;;;;;;27.25;36.67;98143.81;5414406;26;20103;-80
2022/05/31 10:57:55;;;;;;;2.40;1.30;;;;;;;27.18;36.14;98140.19;5413875;26;20183;-80
2022/05/31 11:00:38;;;;;;;6.90;1.40;;;;;;;27.01;35.91;98139.31;5414137;26;20065;-79
2022/05/31 11:03:13;;;;;;;3.58;1.60;;;;;;;26.21;38.19;98134.63;5414389;26;20050;-79
2022/05/31 11:06:06;;;;;;;3.85;1.40;;;;;;;26.29;38.03;98128.53;5413839;26;20107;-78
2022/05/31 11:12:08;;;;;;;4.15;1.35;;;;;;;25.62;38.16;98127.63;5408523;26;20055;-79
2022/05/31 11:14:53;;;;;;;2.92;1.50;;;;;;;25.80;40.01;98127.56;5415138;26;20099;-80
2022/05/31 11:17:30;;;;;;;2.60;1.50;;;;;;;24.86;40.11;98124.81;5415107;26;20059;-79
2022/05/31 11:20:05;;;;;;;3.45;1.40;;;;;;;26.85;36.91;98128.75;5394500;26;20118;-81
2022/05/31 11:22:47;;;;;;;2.87;1.40;;;;;;;27.69;34.20;98116.88;5394719;26;20051;-81
2022/05/31 11:25:39;;;;;;;3.15;1.48;;;;;;;27.33;36.10;98122.62;5412827;26;20112;-81
2022/05/31 11:28:50;;;;;;;3.15;1.60;;;;;;;26.90;36.47;98127.25;5414358;26;20062;-80
2022/05/31 11:31:51;;;;;;;2.58;1.48;;;;;;;27.58;35.50;98120.69;5414430;26;20133;-80
2022/05/31 11:34:53;;;;;;;4.62;1.50;;;;;;;27.72;35.69;98120.00;5413980;26;20052;-80
2022/05/31 11:37:51;;;;;;;6.20;1.52;;;;;;;26.53;36.92;98111.88;5398472;26;20091;-80
2022/05/31 11:40:43;;;;;;;2.37;1.40;;;;;;;26.94;37.49;98110.06;5414104;26;20082;-81
2022/05/31 11:43:21;;;;;;;2.62;1.40;;;;;;;26.28;37.57;98107.53;5414288;26;20127;-80
2022/05/31 11:46:13;;;;;;;2.17;1.40;;;;;;;27.81;34.50;98095.13;5414282;26;20090;-81
2022/05/31 11:49:00;;;;;;;3.47;1.50;;;;;;;27.20;36.44;98091.31;5414023;26;20058;-81
2022/05/31 11:52:07;;;;;;;4.15;1.40;;;;;;;26.24;38.40;98094.63;5394755;26;20102;-80
2022/05/31 11:55:25;;;;;;;2.92;1.60;;;;;;;28.14;34.90;98095.75;5415312;26;20065;-80
2022/05/31 11:57:44;;;;;;;5.25;1.70;;;;;;;26.41;36.83;98095.50;5415288;26;20111;-80
2022/05/31 12:00:11;;;;;;;;;;;;;;;26.97;35.11;98093.84;5414440;26;20106;-79
2022/05/31 12:02:49;;;;;;;;;;;;;;;26.71;36.95;98090.56;5414089;26;20004;-79
2022/05/31 12:05:29;;;;;;;4.53;1.60;;;;;;;25.87;38.92;98091.59;5414098;26;19982;-79
2022/05/31 12:08:07;;;;;;;3.92;1.85;;;;;;;26.00;37.66;98080.53;5413684;26;20055;-79
2022/05/31 12:10:54;;;;;;;3.85;1.52;;;;;;;26.10;38.06;98073.28;5393634;26;20111;-79
2022/05/31 12:13:21;;;;;;;;;;;;;;;26.79;38.99;98072.81;5394313;26;20129;-79
2022/05/31 12:15:50;;;;;;;4.93;1.77;;;;;;;26.52;37.44;98073.19;5393274;26;20271;-79
2022/05/31 12:18:25;;;;;;;4.62;1.70;;;;;;;25.88;37.88;98072.09;5413702;26;20071;-79
2022/05/31 12:21:03;;;;;;;4.40;1.52;;;;;;;27.01;36.70;98075.78;5393772;26;20635;-79
2022/05/31 12:23:36;;;;;;;3.53;1.40;;;;;;;27.42;36.08;98062.44;5412561;26;20071;-79